sensor_id;sensor_type;location;lat;lon;timestamp;P1;durP1;ratioP1;P2;durP2;ratioP2
78612;SDS011;67933;51.060;3.638;2023-04-03T00:01:10;25.23;;;13.50;;
78612;SDS011;67933;51.060;3.638;2023-04-03T00:03:36;21.70;;;13.57;;
78612;SDS011;67933;51.060;3.638;2023-04-03T00:06:02;23.67;;;13.55;;
78612;SDS011;67933;51.060;3.638;2023-04-03T00:08:28;22.77;;;12.75;;
78612;SDS011;67933;51.060;3.638;2023-04-03T00:10:56;21.58;;;12.15;;
78612;SDS011;67933;51.060;3.638;2023-04-03T00:13:22;20.50;;;12.00;;
78612;SDS011;67933;51.060;3.638;2023-04-03T00:15:48;23.17;;;12.35;;
78612;SDS011;67933;51.060;3.638;2023-04-03T00:18:13;19.02;;;10.65;;
78612;SDS011;67933;51.060;3.638;2023-04-03T00:20:39;16.30;;;10.40;;
78612;SDS011;67933;51.060;3.638;2023-04-03T00:23:04;14.40;;;9.07;;
78612;SDS011;67933;51.060;3.638;2023-04-03T00:25:30;17.52;;;11.18;;
78612;SDS011;67933;51.060;3.638;2023-04-03T00:27:55;18.25;;;10.07;;
78612;SDS011;67933;51.060;3.638;2023-04-03T00:30:21;16.95;;;10.35;;
78612;SDS011;67933;51.060;3.638;2023-04-03T00:32:50;17.02;;;10.02;;
78612;SDS011;67933;51.060;3.638;2023-04-03T00:35:17;16.65;;;9.18;;
78612;SDS011;67933;51.060;3.638;2023-04-03T00:37:44;18.33;;;11.57;;
78612;SDS011;67933;51.060;3.638;2023-04-03T00:40:10;20.35;;;12.25;;
78612;SDS011;67933;51.060;3.638;2023-04-03T00:42:37;20.98;;;12.50;;
78612;SDS011;67933;51.060;3.638;2023-04-03T00:47:29;17.95;;;11.75;;
78612;SDS011;67933;51.060;3.638;2023-04-03T00:49:55;22.27;;;12.38;;
78612;SDS011;67933;51.060;3.638;2023-04-03T00:52:23;20.30;;;11.95;;
78612;SDS011;67933;51.060;3.638;2023-04-03T00:54:53;20.95;;;11.20;;
78612;SDS011;67933;51.060;3.638;2023-04-03T00:57:22;19.35;;;10.90;;
78612;SDS011;67933;51.060;3.638;2023-04-03T00:59:51;21.92;;;12.90;;
78612;SDS011;67933;51.060;3.638;2023-04-03T01:02:22;22.75;;;10.93;;
78612;SDS011;67933;51.060;3.638;2023-04-03T01:04:47;20.55;;;11.00;;
78612;SDS011;67933;51.060;3.638;2023-04-03T01:07:17;17.55;;;10.00;;
78612;SDS011;67933;51.060;3.638;2023-04-03T01:09:47;16.60;;;9.73;;
78612;SDS011;67933;51.060;3.638;2023-04-03T01:12:18;19.00;;;9.63;;
78612;SDS011;67933;51.060;3.638;2023-04-03T01:14:46;16.08;;;9.98;;
78612;SDS011;67933;51.060;3.638;2023-04-03T01:22:35;14.60;;;9.30;;
78612;SDS011;67933;51.060;3.638;2023-04-03T01:25:21;13.52;;;8.85;;
78612;SDS011;67933;51.060;3.638;2023-04-03T01:27:47;16.23;;;9.77;;
78612;SDS011;67933;51.060;3.638;2023-04-03T01:30:12;16.40;;;9.52;;
78612;SDS011;67933;51.060;3.638;2023-04-03T01:32:41;15.73;;;10.07;;
78612;SDS011;67933;51.060;3.638;2023-04-03T01:35:07;16.00;;;9.80;;
78612;SDS011;67933;51.060;3.638;2023-04-03T01:37:35;13.75;;;9.30;;
78612;SDS011;67933;51.060;3.638;2023-04-03T01:40:01;15.35;;;10.30;;
78612;SDS011;67933;51.060;3.638;2023-04-03T01:42:26;17.45;;;9.15;;
78612;SDS011;67933;51.060;3.638;2023-04-03T01:44:52;13.63;;;8.38;;
78612;SDS011;67933;51.060;3.638;2023-04-03T01:47:17;13.60;;;8.68;;
78612;SDS011;67933;51.060;3.638;2023-04-03T01:49:42;13.40;;;8.80;;
78612;SDS011;67933;51.060;3.638;2023-04-03T01:52:08;14.65;;;8.85;;
78612;SDS011;67933;51.060;3.638;2023-04-03T01:54:33;15.95;;;9.10;;
78612;SDS011;67933;51.060;3.638;2023-04-03T01:57:00;14.48;;;8.00;;
78612;SDS011;67933;51.060;3.638;2023-04-03T01:59:25;13.65;;;8.23;;
78612;SDS011;67933;51.060;3.638;2023-04-03T02:01:51;13.15;;;8.82;;
78612;SDS011;67933;51.060;3.638;2023-04-03T02:04:16;13.32;;;7.47;;
78612;SDS011;67933;51.060;3.638;2023-04-03T02:06:42;14.07;;;8.45;;
78612;SDS011;67933;51.060;3.638;2023-04-03T02:09:07;13.18;;;9.02;;
78612;SDS011;67933;51.060;3.638;2023-04-03T02:11:33;14.40;;;8.05;;
78612;SDS011;67933;51.060;3.638;2023-04-03T02:13:58;13.52;;;7.45;;
78612;SDS011;67933;51.060;3.638;2023-04-03T02:16:23;13.43;;;7.68;;
78612;SDS011;67933;51.060;3.638;2023-04-03T02:18:49;9.75;;;7.32;;
78612;SDS011;67933;51.060;3.638;2023-04-03T02:21:15;11.70;;;7.60;;
78612;SDS011;67933;51.060;3.638;2023-04-03T02:23:40;11.27;;;8.10;;
78612;SDS011;67933;51.060;3.638;2023-04-03T02:26:08;13.07;;;8.02;;
78612;SDS011;67933;51.060;3.638;2023-04-03T02:31:00;9.93;;;6.75;;
78612;SDS011;67933;51.060;3.638;2023-04-03T02:33:25;14.82;;;8.50;;
78612;SDS011;67933;51.060;3.638;2023-04-03T02:35:54;13.27;;;8.60;;
78612;SDS011;67933;51.060;3.638;2023-04-03T02:38:21;14.07;;;8.65;;
78612;SDS011;67933;51.060;3.638;2023-04-03T02:40:47;13.95;;;8.90;;
78612;SDS011;67933;51.060;3.638;2023-04-03T02:43:12;13.10;;;8.65;;
78612;SDS011;67933;51.060;3.638;2023-04-03T02:45:37;10.73;;;6.80;;
78612;SDS011;67933;51.060;3.638;2023-04-03T02:48:03;14.80;;;8.40;;
78612;SDS011;67933;51.060;3.638;2023-04-03T02:50:29;14.30;;;9.15;;
78612;SDS011;67933;51.060;3.638;2023-04-03T02:52:54;12.57;;;8.50;;
78612;SDS011;67933;51.060;3.638;2023-04-03T02:55:20;15.10;;;8.80;;
78612;SDS011;67933;51.060;3.638;2023-04-03T02:57:45;13.00;;;8.73;;
78612;SDS011;67933;51.060;3.638;2023-04-03T03:00:11;16.95;;;8.85;;
78612;SDS011;67933;51.060;3.638;2023-04-03T03:02:37;11.45;;;8.82;;
78612;SDS011;67933;51.060;3.638;2023-04-03T03:05:02;14.38;;;8.88;;
78612;SDS011;67933;51.060;3.638;2023-04-03T03:07:28;14.23;;;8.73;;
78612;SDS011;67933;51.060;3.638;2023-04-03T03:09:53;16.13;;;9.57;;
78612;SDS011;67933;51.060;3.638;2023-04-03T03:12:19;14.68;;;8.48;;
78612;SDS011;67933;51.060;3.638;2023-04-03T03:14:46;14.27;;;8.50;;
78612;SDS011;67933;51.060;3.638;2023-04-03T03:17:12;16.10;;;9.25;;
78612;SDS011;67933;51.060;3.638;2023-04-03T03:19:38;16.88;;;9.15;;
78612;SDS011;67933;51.060;3.638;2023-04-03T03:22:03;12.75;;;8.68;;
78612;SDS011;67933;51.060;3.638;2023-04-03T03:24:28;12.32;;;8.30;;
78612;SDS011;67933;51.060;3.638;2023-04-03T03:26:54;13.75;;;8.93;;
78612;SDS011;67933;51.060;3.638;2023-04-03T03:29:20;11.98;;;7.60;;
78612;SDS011;67933;51.060;3.638;2023-04-03T03:31:45;11.52;;;7.53;;
78612;SDS011;67933;51.060;3.638;2023-04-03T03:34:11;16.17;;;9.13;;
78612;SDS011;67933;51.060;3.638;2023-04-03T03:36:36;14.73;;;9.02;;
78612;SDS011;67933;51.060;3.638;2023-04-03T03:39:02;12.35;;;7.88;;
78612;SDS011;67933;51.060;3.638;2023-04-03T03:41:27;13.90;;;8.20;;
78612;SDS011;67933;51.060;3.638;2023-04-03T03:43:53;14.27;;;9.45;;
78612;SDS011;67933;51.060;3.638;2023-04-03T03:46:18;13.10;;;8.45;;
78612;SDS011;67933;51.060;3.638;2023-04-03T03:48:44;13.68;;;9.65;;
78612;SDS011;67933;51.060;3.638;2023-04-03T03:51:10;14.45;;;9.02;;
78612;SDS011;67933;51.060;3.638;2023-04-03T03:53:35;11.88;;;7.90;;
78612;SDS011;67933;51.060;3.638;2023-04-03T03:56:01;13.13;;;8.48;;
78612;SDS011;67933;51.060;3.638;2023-04-03T03:58:27;13.75;;;8.85;;
78612;SDS011;67933;51.060;3.638;2023-04-03T04:00:52;13.50;;;8.88;;
78612;SDS011;67933;51.060;3.638;2023-04-03T04:03:18;15.20;;;8.30;;
78612;SDS011;67933;51.060;3.638;2023-04-03T04:05:43;13.57;;;9.25;;
78612;SDS011;67933;51.060;3.638;2023-04-03T04:08:09;11.85;;;7.30;;
78612;SDS011;67933;51.060;3.638;2023-04-03T04:10:35;13.90;;;8.20;;
78612;SDS011;67933;51.060;3.638;2023-04-03T04:13:02;15.02;;;9.30;;
78612;SDS011;67933;51.060;3.638;2023-04-03T04:15:28;12.45;;;9.18;;
78612;SDS011;67933;51.060;3.638;2023-04-03T04:17:54;17.67;;;8.90;;
78612;SDS011;67933;51.060;3.638;2023-04-03T04:20:19;13.27;;;8.98;;
78612;SDS011;67933;51.060;3.638;2023-04-03T04:22:45;18.50;;;8.82;;
78612;SDS011;67933;51.060;3.638;2023-04-03T04:25:10;14.88;;;9.02;;
78612;SDS011;67933;51.060;3.638;2023-04-03T04:27:36;14.02;;;8.02;;
78612;SDS011;67933;51.060;3.638;2023-04-03T04:30:02;14.85;;;8.70;;
78612;SDS011;67933;51.060;3.638;2023-04-03T04:32:28;14.23;;;8.60;;
78612;SDS011;67933;51.060;3.638;2023-04-03T04:34:54;15.10;;;9.70;;
78612;SDS011;67933;51.060;3.638;2023-04-03T04:37:19;13.18;;;7.97;;
78612;SDS011;67933;51.060;3.638;2023-04-03T04:39:45;14.00;;;7.45;;
78612;SDS011;67933;51.060;3.638;2023-04-03T04:42:10;14.68;;;8.15;;
78612;SDS011;67933;51.060;3.638;2023-04-03T04:44:38;11.93;;;8.10;;
78612;SDS011;67933;51.060;3.638;2023-04-03T04:47:04;14.00;;;7.90;;
78612;SDS011;67933;51.060;3.638;2023-04-03T04:49:30;14.20;;;8.75;;
78612;SDS011;67933;51.060;3.638;2023-04-03T04:51:55;18.38;;;8.13;;
78612;SDS011;67933;51.060;3.638;2023-04-03T04:54:21;12.40;;;8.38;;
78612;SDS011;67933;51.060;3.638;2023-04-03T04:56:46;14.43;;;8.68;;
78612;SDS011;67933;51.060;3.638;2023-04-03T04:59:12;14.45;;;9.02;;
78612;SDS011;67933;51.060;3.638;2023-04-03T05:01:37;14.10;;;9.02;;
78612;SDS011;67933;51.060;3.638;2023-04-03T05:04:04;15.35;;;8.60;;
78612;SDS011;67933;51.060;3.638;2023-04-03T05:06:30;15.98;;;8.82;;
78612;SDS011;67933;51.060;3.638;2023-04-03T05:08:56;18.08;;;9.65;;
78612;SDS011;67933;51.060;3.638;2023-04-03T05:11:23;21.92;;;9.73;;
78612;SDS011;67933;51.060;3.638;2023-04-03T05:13:48;17.00;;;9.93;;
78612;SDS011;67933;51.060;3.638;2023-04-03T05:16:14;14.77;;;8.85;;
78612;SDS011;67933;51.060;3.638;2023-04-03T05:18:40;16.63;;;8.75;;
78612;SDS011;67933;51.060;3.638;2023-04-03T05:21:05;20.02;;;9.00;;
78612;SDS011;67933;51.060;3.638;2023-04-03T05:23:30;15.27;;;8.55;;
78612;SDS011;67933;51.060;3.638;2023-04-03T05:25:56;16.13;;;8.98;;
78612;SDS011;67933;51.060;3.638;2023-04-03T05:28:22;13.68;;;8.07;;
78612;SDS011;67933;51.060;3.638;2023-04-03T05:30:57;10.18;;;6.47;;
78612;SDS011;67933;51.060;3.638;2023-04-03T05:33:24;10.85;;;6.90;;
78612;SDS011;67933;51.060;3.638;2023-04-03T05:35:51;9.32;;;6.75;;
78612;SDS011;67933;51.060;3.638;2023-04-03T05:38:17;10.43;;;7.35;;
78612;SDS011;67933;51.060;3.638;2023-04-03T05:40:43;13.10;;;7.88;;
78612;SDS011;67933;51.060;3.638;2023-04-03T05:43:08;14.82;;;7.50;;
78612;SDS011;67933;51.060;3.638;2023-04-03T05:45:34;14.43;;;8.25;;
78612;SDS011;67933;51.060;3.638;2023-04-03T05:47:59;13.82;;;8.13;;
78612;SDS011;67933;51.060;3.638;2023-04-03T05:50:25;14.10;;;8.02;;
78612;SDS011;67933;51.060;3.638;2023-04-03T05:52:51;11.90;;;7.90;;
78612;SDS011;67933;51.060;3.638;2023-04-03T05:55:20;14.27;;;9.15;;
78612;SDS011;67933;51.060;3.638;2023-04-03T05:57:45;14.73;;;8.48;;
78612;SDS011;67933;51.060;3.638;2023-04-03T06:00:12;13.82;;;8.60;;
78612;SDS011;67933;51.060;3.638;2023-04-03T06:02:40;10.88;;;7.80;;
78612;SDS011;67933;51.060;3.638;2023-04-03T06:05:07;12.40;;;7.75;;
78612;SDS011;67933;51.060;3.638;2023-04-03T06:07:33;14.88;;;9.23;;
78612;SDS011;67933;51.060;3.638;2023-04-03T06:10:00;16.58;;;9.40;;
78612;SDS011;67933;51.060;3.638;2023-04-03T06:12:26;12.63;;;9.60;;
78612;SDS011;67933;51.060;3.638;2023-04-03T06:14:53;15.18;;;9.95;;
78612;SDS011;67933;51.060;3.638;2023-04-03T06:17:19;13.85;;;8.90;;
78612;SDS011;67933;51.060;3.638;2023-04-03T06:19:45;16.35;;;9.52;;
78612;SDS011;67933;51.060;3.638;2023-04-03T06:22:10;14.93;;;9.35;;
78612;SDS011;67933;51.060;3.638;2023-04-03T06:24:36;14.60;;;8.48;;
78612;SDS011;67933;51.060;3.638;2023-04-03T06:27:03;15.55;;;10.07;;
78612;SDS011;67933;51.060;3.638;2023-04-03T06:29:28;13.77;;;9.38;;
78612;SDS011;67933;51.060;3.638;2023-04-03T06:31:54;14.63;;;9.98;;
78612;SDS011;67933;51.060;3.638;2023-04-03T06:34:20;17.55;;;11.30;;
78612;SDS011;67933;51.060;3.638;2023-04-03T06:36:46;14.98;;;10.20;;
78612;SDS011;67933;51.060;3.638;2023-04-03T06:39:15;19.40;;;10.65;;
78612;SDS011;67933;51.060;3.638;2023-04-03T06:41:43;13.82;;;8.93;;
78612;SDS011;67933;51.060;3.638;2023-04-03T06:44:09;17.23;;;10.07;;
78612;SDS011;67933;51.060;3.638;2023-04-03T06:46:36;16.05;;;10.20;;
78612;SDS011;67933;51.060;3.638;2023-04-03T06:49:02;18.77;;;10.75;;
78612;SDS011;67933;51.060;3.638;2023-04-03T06:51:29;20.98;;;11.95;;
78612;SDS011;67933;51.060;3.638;2023-04-03T06:53:55;22.42;;;12.93;;
78612;SDS011;67933;51.060;3.638;2023-04-03T06:56:22;26.25;;;13.27;;
78612;SDS011;67933;51.060;3.638;2023-04-03T06:58:48;28.83;;;15.73;;
78612;SDS011;67933;51.060;3.638;2023-04-03T07:01:15;27.83;;;13.77;;
78612;SDS011;67933;51.060;3.638;2023-04-03T07:03:42;23.65;;;13.63;;
78612;SDS011;67933;51.060;3.638;2023-04-03T07:06:09;22.25;;;13.98;;
78612;SDS011;67933;51.060;3.638;2023-04-03T07:08:37;23.70;;;13.35;;
78612;SDS011;67933;51.060;3.638;2023-04-03T07:11:04;30.02;;;15.38;;
78612;SDS011;67933;51.060;3.638;2023-04-03T07:13:31;31.42;;;16.48;;
78612;SDS011;67933;51.060;3.638;2023-04-03T07:15:57;30.90;;;17.33;;
78612;SDS011;67933;51.060;3.638;2023-04-03T07:18:23;24.38;;;14.90;;
78612;SDS011;67933;51.060;3.638;2023-04-03T07:20:50;17.77;;;13.07;;
78612;SDS011;67933;51.060;3.638;2023-04-03T07:23:15;12.20;;;9.15;;
78612;SDS011;67933;51.060;3.638;2023-04-03T07:25:48;13.13;;;9.48;;
78612;SDS011;67933;51.060;3.638;2023-04-03T07:28:15;12.70;;;9.00;;
78612;SDS011;67933;51.060;3.638;2023-04-03T07:30:45;12.98;;;8.13;;
78612;SDS011;67933;51.060;3.638;2023-04-03T07:33:12;9.13;;;8.13;;
78612;SDS011;67933;51.060;3.638;2023-04-03T07:35:39;9.45;;;7.10;;
78612;SDS011;67933;51.060;3.638;2023-04-03T07:38:05;7.30;;;5.78;;
78612;SDS011;67933;51.060;3.638;2023-04-03T07:40:31;12.57;;;6.57;;
78612;SDS011;67933;51.060;3.638;2023-04-03T07:42:57;8.90;;;6.38;;
78612;SDS011;67933;51.060;3.638;2023-04-03T07:45:23;9.27;;;6.60;;
78612;SDS011;67933;51.060;3.638;2023-04-03T07:47:49;10.23;;;6.82;;
78612;SDS011;67933;51.060;3.638;2023-04-03T07:50:15;8.70;;;7.13;;
78612;SDS011;67933;51.060;3.638;2023-04-03T07:52:41;6.68;;;5.00;;
78612;SDS011;67933;51.060;3.638;2023-04-03T07:55:07;6.25;;;4.85;;
78612;SDS011;67933;51.060;3.638;2023-04-03T07:57:33;5.63;;;4.88;;
78612;SDS011;67933;51.060;3.638;2023-04-03T07:59:58;6.22;;;5.35;;
78612;SDS011;67933;51.060;3.638;2023-04-03T08:02:24;6.35;;;4.40;;
78612;SDS011;67933;51.060;3.638;2023-04-03T08:04:50;5.63;;;5.03;;
78612;SDS011;67933;51.060;3.638;2023-04-03T08:07:15;5.78;;;5.15;;
78612;SDS011;67933;51.060;3.638;2023-04-03T08:09:40;6.97;;;5.18;;
78612;SDS011;67933;51.060;3.638;2023-04-03T08:12:06;6.75;;;5.10;;
78612;SDS011;67933;51.060;3.638;2023-04-03T08:14:32;9.70;;;5.68;;
78612;SDS011;67933;51.060;3.638;2023-04-03T08:19:25;6.90;;;5.55;;
78612;SDS011;67933;51.060;3.638;2023-04-03T08:21:53;10.38;;;5.68;;
78612;SDS011;67933;51.060;3.638;2023-04-03T08:24:19;6.32;;;5.70;;
78612;SDS011;67933;51.060;3.638;2023-04-03T08:26:44;7.85;;;5.43;;
78612;SDS011;67933;51.060;3.638;2023-04-03T08:29:10;9.27;;;5.20;;
78612;SDS011;67933;51.060;3.638;2023-04-03T08:31:35;9.13;;;6.13;;
78612;SDS011;67933;51.060;3.638;2023-04-03T08:34:01;6.45;;;5.70;;
78612;SDS011;67933;51.060;3.638;2023-04-03T08:36:27;9.63;;;5.60;;
78612;SDS011;67933;51.060;3.638;2023-04-03T08:38:54;8.90;;;6.30;;
78612;SDS011;67933;51.060;3.638;2023-04-03T08:46:52;11.60;;;6.00;;
78612;SDS011;67933;51.060;3.638;2023-04-03T08:49:28;7.57;;;5.78;;
78612;SDS011;67933;51.060;3.638;2023-04-03T08:51:57;7.18;;;5.22;;
78612;SDS011;67933;51.060;3.638;2023-04-03T08:54:30;6.28;;;4.70;;
78612;SDS011;67933;51.060;3.638;2023-04-03T08:57:06;6.78;;;4.57;;
78612;SDS011;67933;51.060;3.638;2023-04-03T08:59:35;6.20;;;5.35;;
78612;SDS011;67933;51.060;3.638;2023-04-03T09:02:04;9.30;;;5.25;;
78612;SDS011;67933;51.060;3.638;2023-04-03T09:04:55;5.25;;;4.72;;
78612;SDS011;67933;51.060;3.638;2023-04-03T09:07:57;7.60;;;4.07;;
78612;SDS011;67933;51.060;3.638;2023-04-03T09:10:30;4.90;;;3.88;;
78612;SDS011;67933;51.060;3.638;2023-04-03T09:13:01;5.00;;;3.78;;
78612;SDS011;67933;51.060;3.638;2023-04-03T09:15:33;5.38;;;3.85;;
78612;SDS011;67933;51.060;3.638;2023-04-03T09:18:00;3.95;;;3.53;;
78612;SDS011;67933;51.060;3.638;2023-04-03T09:20:44;4.95;;;3.53;;
78612;SDS011;67933;51.060;3.638;2023-04-03T09:26:41;6.95;;;3.03;;
78612;SDS011;67933;51.060;3.638;2023-04-03T09:29:12;4.15;;;2.40;;
78612;SDS011;67933;51.060;3.638;2023-04-03T09:31:43;2.90;;;2.47;;
78612;SDS011;67933;51.060;3.638;2023-04-03T09:34:24;3.65;;;2.10;;
78612;SDS011;67933;51.060;3.638;2023-04-03T09:36:56;4.18;;;2.30;;
78612;SDS011;67933;51.060;3.638;2023-04-03T09:39:31;4.53;;;2.10;;
78612;SDS011;67933;51.060;3.638;2023-04-03T09:42:01;3.50;;;2.00;;
78612;SDS011;67933;51.060;3.638;2023-04-03T09:46:57;4.32;;;2.40;;
78612;SDS011;67933;51.060;3.638;2023-04-03T09:49:23;3.13;;;1.85;;
78612;SDS011;67933;51.060;3.638;2023-04-03T09:51:48;2.20;;;1.92;;
78612;SDS011;67933;51.060;3.638;2023-04-03T09:56:56;4.63;;;2.42;;
78612;SDS011;67933;51.060;3.638;2023-04-03T09:59:28;3.45;;;2.53;;
78612;SDS011;67933;51.060;3.638;2023-04-03T10:02:00;4.00;;;2.47;;
78612;SDS011;67933;51.060;3.638;2023-04-03T10:04:42;5.10;;;2.83;;
78612;SDS011;67933;51.060;3.638;2023-04-03T10:07:28;4.75;;;2.80;;
78612;SDS011;67933;51.060;3.638;2023-04-03T10:10:00;6.05;;;3.17;;
78612;SDS011;67933;51.060;3.638;2023-04-03T10:12:40;3.90;;;2.13;;
78612;SDS011;67933;51.060;3.638;2023-04-03T10:15:13;4.90;;;2.88;;
78612;SDS011;67933;51.060;3.638;2023-04-03T10:23:02;4.20;;;2.72;;
78612;SDS011;67933;51.060;3.638;2023-04-03T10:25:35;6.10;;;3.03;;
78612;SDS011;67933;51.060;3.638;2023-04-03T10:41:37;4.95;;;2.50;;
78612;SDS011;67933;51.060;3.638;2023-04-03T10:46:37;3.05;;;2.15;;
78612;SDS011;67933;51.060;3.638;2023-04-03T10:49:11;4.45;;;2.58;;
78612;SDS011;67933;51.060;3.638;2023-04-03T10:51:45;4.13;;;2.33;;
78612;SDS011;67933;51.060;3.638;2023-04-03T10:57:03;3.30;;;2.28;;
78612;SDS011;67933;51.060;3.638;2023-04-03T10:59:32;5.38;;;1.90;;
78612;SDS011;67933;51.060;3.638;2023-04-03T11:02:02;3.60;;;2.10;;
78612;SDS011;67933;51.060;3.638;2023-04-03T11:04:34;4.32;;;2.05;;
78612;SDS011;67933;51.060;3.638;2023-04-03T11:09:43;3.45;;;1.80;;
78612;SDS011;67933;51.060;3.638;2023-04-03T11:12:16;4.55;;;1.90;;
78612;SDS011;67933;51.060;3.638;2023-04-03T11:25:24;4.57;;;1.60;;
78612;SDS011;67933;51.060;3.638;2023-04-03T11:35:47;3.05;;;1.50;;
78612;SDS011;67933;51.060;3.638;2023-04-03T11:38:30;3.38;;;1.67;;
78612;SDS011;67933;51.060;3.638;2023-04-03T11:41:01;2.88;;;1.70;;
78612;SDS011;67933;51.060;3.638;2023-04-03T11:43:30;1.95;;;1.30;;
78612;SDS011;67933;51.060;3.638;2023-04-03T11:46:06;2.42;;;1.52;;
78612;SDS011;67933;51.060;3.638;2023-04-03T11:53:42;4.07;;;2.00;;
78612;SDS011;67933;51.060;3.638;2023-04-03T12:04:13;2.75;;;1.45;;
78612;SDS011;67933;51.060;3.638;2023-04-03T12:10:14;2.55;;;1.60;;
78612;SDS011;67933;51.060;3.638;2023-04-03T12:15:16;2.72;;;1.95;;
78612;SDS011;67933;51.060;3.638;2023-04-03T12:17:43;1.88;;;1.50;;
78612;SDS011;67933;51.060;3.638;2023-04-03T12:25:51;2.85;;;1.80;;
78612;SDS011;67933;51.060;3.638;2023-04-03T12:28:16;4.45;;;1.80;;
78612;SDS011;67933;51.060;3.638;2023-04-03T12:30:42;3.40;;;1.83;;
78612;SDS011;67933;51.060;3.638;2023-04-03T12:33:14;2.22;;;1.60;;
78612;SDS011;67933;51.060;3.638;2023-04-03T12:35:56;4.25;;;1.52;;
78612;SDS011;67933;51.060;3.638;2023-04-03T12:38:40;3.45;;;1.90;;
78612;SDS011;67933;51.060;3.638;2023-04-03T12:41:22;3.25;;;1.45;;
78612;SDS011;67933;51.060;3.638;2023-04-03T12:46:42;4.88;;;1.60;;
78612;SDS011;67933;51.060;3.638;2023-04-03T12:51:53;4.82;;;1.98;;
78612;SDS011;67933;51.060;3.638;2023-04-03T12:54:21;3.60;;;1.83;;
78612;SDS011;67933;51.060;3.638;2023-04-03T12:56:51;4.63;;;1.95;;
78612;SDS011;67933;51.060;3.638;2023-04-03T12:59:33;2.42;;;1.65;;
78612;SDS011;67933;51.060;3.638;2023-04-03T13:01:59;4.85;;;1.85;;
78612;SDS011;67933;51.060;3.638;2023-04-03T13:04:29;2.40;;;1.75;;
78612;SDS011;67933;51.060;3.638;2023-04-03T13:06:56;2.55;;;1.90;;
78612;SDS011;67933;51.060;3.638;2023-04-03T13:09:23;2.38;;;1.30;;
78612;SDS011;67933;51.060;3.638;2023-04-03T13:11:51;3.38;;;2.00;;
78612;SDS011;67933;51.060;3.638;2023-04-03T13:14:23;4.13;;;1.55;;
78612;SDS011;67933;51.060;3.638;2023-04-03T13:19:26;2.53;;;1.50;;
78612;SDS011;67933;51.060;3.638;2023-04-03T13:21:58;5.35;;;1.73;;
78612;SDS011;67933;51.060;3.638;2023-04-03T13:24:26;1.70;;;1.25;;
78612;SDS011;67933;51.060;3.638;2023-04-03T13:26:54;2.85;;;1.60;;
78612;SDS011;67933;51.060;3.638;2023-04-03T13:29:30;3.08;;;1.40;;
78612;SDS011;67933;51.060;3.638;2023-04-03T13:31:59;3.40;;;1.58;;
78612;SDS011;67933;51.060;3.638;2023-04-03T13:34:26;1.75;;;1.20;;
78612;SDS011;67933;51.060;3.638;2023-04-03T13:39:23;4.32;;;1.40;;
78612;SDS011;67933;51.060;3.638;2023-04-03T13:41:55;3.03;;;1.55;;
78612;SDS011;67933;51.060;3.638;2023-04-03T13:44:39;2.03;;;1.17;;
78612;SDS011;67933;51.060;3.638;2023-04-03T13:50:31;3.13;;;1.25;;
78612;SDS011;67933;51.060;3.638;2023-04-03T13:55:19;1.48;;;1.25;;
78612;SDS011;67933;51.060;3.638;2023-04-03T14:01:07;2.28;;;1.35;;
78612;SDS011;67933;51.060;3.638;2023-04-03T14:06:22;2.47;;;1.52;;
78612;SDS011;67933;51.060;3.638;2023-04-03T14:08:48;1.70;;;1.58;;
78612;SDS011;67933;51.060;3.638;2023-04-03T14:11:24;2.03;;;1.38;;
78612;SDS011;67933;51.060;3.638;2023-04-03T14:13:53;1.92;;;1.02;;
78612;SDS011;67933;51.060;3.638;2023-04-03T14:16:25;1.77;;;1.23;;
78612;SDS011;67933;51.060;3.638;2023-04-03T14:18:55;3.63;;;1.45;;
78612;SDS011;67933;51.060;3.638;2023-04-03T14:21:20;3.67;;;1.45;;
78612;SDS011;67933;51.060;3.638;2023-04-03T14:23:46;2.45;;;1.25;;
78612;SDS011;67933;51.060;3.638;2023-04-03T14:26:20;2.22;;;1.13;;
78612;SDS011;67933;51.060;3.638;2023-04-03T14:28:48;1.95;;;1.13;;
78612;SDS011;67933;51.060;3.638;2023-04-03T14:31:16;1.25;;;0.90;;
78612;SDS011;67933;51.060;3.638;2023-04-03T14:33:42;3.58;;;1.10;;
78612;SDS011;67933;51.060;3.638;2023-04-03T14:36:12;1.88;;;1.00;;
78612;SDS011;67933;51.060;3.638;2023-04-03T14:38:40;3.55;;;1.20;;
78612;SDS011;67933;51.060;3.638;2023-04-03T14:41:06;2.83;;;1.08;;
78612;SDS011;67933;51.060;3.638;2023-04-03T14:43:32;2.05;;;1.13;;
78612;SDS011;67933;51.060;3.638;2023-04-03T14:45:57;1.88;;;1.30;;
78612;SDS011;67933;51.060;3.638;2023-04-03T14:48:24;15.52;;;1.60;;
78612;SDS011;67933;51.060;3.638;2023-04-03T14:50:52;1.50;;;1.10;;
78612;SDS011;67933;51.060;3.638;2023-04-03T14:53:19;1.50;;;1.00;;
78612;SDS011;67933;51.060;3.638;2023-04-03T14:55:47;2.53;;;1.10;;
78612;SDS011;67933;51.060;3.638;2023-04-03T14:58:14;2.15;;;1.42;;
78612;SDS011;67933;51.060;3.638;2023-04-03T15:00:41;2.72;;;1.27;;
78612;SDS011;67933;51.060;3.638;2023-04-03T15:03:11;3.00;;;1.00;;
78612;SDS011;67933;51.060;3.638;2023-04-03T15:05:43;3.35;;;1.15;;
78612;SDS011;67933;51.060;3.638;2023-04-03T15:08:16;2.47;;;1.23;;
78612;SDS011;67933;51.060;3.638;2023-04-03T15:10:44;2.90;;;1.35;;
78612;SDS011;67933;51.060;3.638;2023-04-03T15:13:10;2.47;;;1.10;;
78612;SDS011;67933;51.060;3.638;2023-04-03T15:15:37;1.63;;;1.00;;
78612;SDS011;67933;51.060;3.638;2023-04-03T15:18:02;3.22;;;1.30;;
78612;SDS011;67933;51.060;3.638;2023-04-03T15:20:28;1.98;;;1.20;;
78612;SDS011;67933;51.060;3.638;2023-04-03T15:22:56;1.35;;;0.90;;
78612;SDS011;67933;51.060;3.638;2023-04-03T15:25:21;2.47;;;1.23;;
78612;SDS011;67933;51.060;3.638;2023-04-03T15:27:47;2.33;;;1.17;;
78612;SDS011;67933;51.060;3.638;2023-04-03T15:30:14;2.47;;;1.08;;
78612;SDS011;67933;51.060;3.638;2023-04-03T15:32:42;2.15;;;1.23;;
78612;SDS011;67933;51.060;3.638;2023-04-03T15:35:07;1.13;;;0.93;;
78612;SDS011;67933;51.060;3.638;2023-04-03T15:37:33;1.38;;;1.15;;
78612;SDS011;67933;51.060;3.638;2023-04-03T15:39:58;2.45;;;1.00;;
78612;SDS011;67933;51.060;3.638;2023-04-03T15:42:24;3.05;;;1.38;;
78612;SDS011;67933;51.060;3.638;2023-04-03T15:44:49;2.10;;;1.35;;
78612;SDS011;67933;51.060;3.638;2023-04-03T15:47:15;1.77;;;0.90;;
78612;SDS011;67933;51.060;3.638;2023-04-03T15:49:40;1.88;;;1.20;;
78612;SDS011;67933;51.060;3.638;2023-04-03T15:52:06;2.58;;;1.38;;
78612;SDS011;67933;51.060;3.638;2023-04-03T15:54:31;2.38;;;1.27;;
78612;SDS011;67933;51.060;3.638;2023-04-03T15:56:57;3.60;;;1.45;;
78612;SDS011;67933;51.060;3.638;2023-04-03T15:59:22;5.68;;;1.13;;
78612;SDS011;67933;51.060;3.638;2023-04-03T16:01:48;1.95;;;1.13;;
78612;SDS011;67933;51.060;3.638;2023-04-03T16:04:15;2.13;;;1.25;;
78612;SDS011;67933;51.060;3.638;2023-04-03T16:06:41;3.53;;;1.20;;
78612;SDS011;67933;51.060;3.638;2023-04-03T16:09:07;2.45;;;1.17;;
78612;SDS011;67933;51.060;3.638;2023-04-03T16:11:32;1.38;;;0.80;;
78612;SDS011;67933;51.060;3.638;2023-04-03T16:14:00;1.52;;;0.90;;
78612;SDS011;67933;51.060;3.638;2023-04-03T16:16:25;2.50;;;0.80;;
78612;SDS011;67933;51.060;3.638;2023-04-03T16:18:52;1.45;;;1.20;;
78612;SDS011;67933;51.060;3.638;2023-04-03T16:21:19;3.25;;;1.23;;
78612;SDS011;67933;51.060;3.638;2023-04-03T16:23:45;1.38;;;1.15;;
78612;SDS011;67933;51.060;3.638;2023-04-03T16:26:11;1.25;;;0.90;;
78612;SDS011;67933;51.060;3.638;2023-04-03T16:28:37;2.55;;;1.20;;
78612;SDS011;67933;51.060;3.638;2023-04-03T16:31:02;1.75;;;1.17;;
78612;SDS011;67933;51.060;3.638;2023-04-03T16:33:29;1.73;;;1.15;;
78612;SDS011;67933;51.060;3.638;2023-04-03T16:35:55;1.20;;;0.90;;
78612;SDS011;67933;51.060;3.638;2023-04-03T16:38:20;3.20;;;1.10;;
78612;SDS011;67933;51.060;3.638;2023-04-03T16:40:47;3.22;;;1.10;;